Station info - map view · info · telemetry · weather · raw · status · beacons · messages · bulletins · browse · moving · my account
Callsign, ship name or locator: Clear       
It is possible to search using wildcards (*?) after a prefix. Example: OH*
APRS station IW2GOB-9 - show graphs
Map loading...
Comment: Op. Maurizio - RCD710+IC2820+AVM6
Mic-E message: En route
Location: 45°18.42' N 9°29.23' E - locator JN45RH83LQ - show map - static map
0.9 miles Southwest bearing 239° from Lodi, Provincia di Lodi, Lombardy, Italy [?]
1.4 miles North bearing 358° from Cornegliano Laudense, Provincia di Lodi, Lombardy, Italy
18.1 miles Southeast bearing 127° from Milan, Province of Milan, Lombardy, Italy
67.8 miles Northeast bearing 23° from Genova, Province of Genoa, Liguria, Italy
Last position: 2017-08-18 13:55:13 EDT (5d 3h28m ago)
2017-08-18 19:55:13 CEST local time at Lodi, Italy [?]
Altitude: 236 ft
Course: 23°
Speed: 1 MPH
Device: Kenwood: TM-D710 (rig)
Last path: IW2GOB-9>TU1XT2 via WIDE1-1,WIDE2-2,qAR,IW2GOB-11 (good)
Positions stored: 142487
Packet rate: 22 seconds between packets on average during 327 seconds.
This station is transmitting packets at a high rate, which can cause congestion in the APRS network.
Other SSIDs: IW2GOB IW2GOB-1 IW2GOB-11 IW2GOB-2 IW2GOB-3 IW2GOB-7 IW2GOB-8 IW2GOB-A IW2GOB-B IW2GOB-N IW2GOB-Y
Stations near current position of IW2GOB-9 - show more
callsign distance last heard - EDT      callsign distance last heard - EDT
IW2GOB13.7 yards 90°2017-08-21 14:22:50 IR2AY C24.8 yards 34°2017-08-23 17:17:32
IR2AY-C24.8 yards 34°2017-08-23 17:17:42 IR2AY B24.8 yards 34°2017-08-23 17:17:52
IR2AY-B24.8 yards 34°2017-08-23 17:18:02 IW2GOB-N24.8 yards 34°2017-08-23 17:07:28
IW2GOB-740.1 yards 180°2017-08-23 12:09:02 IW2GOB-Y42.4 yards 19°2017-08-21 17:14:56
IW2GOB-7-i49.5 yards 28°2017-08-22 17:17:19 IK2PYX-A195.9 yards 339°2017-08-16 12:02:25
IK2PYX-110.9 miles 75°2017-08-23 17:00:03 IK2PYX-60.9 miles 74°2017-08-21 10:53:07
IK2PYX B0.9 miles 76°2017-08-23 17:22:09 IK2PYX-B0.9 miles 76°2017-08-23 17:22:19
K42303371.2 miles 92°2017-07-24 21:13:42 IK2GVA1.7 miles 312°2017-08-09 06:39:25
IW2GOB-31.7 miles 108°2017-08-23 17:20:07 IW2GOB-21.7 miles 108°2017-08-23 17:22:11
IW2GOB-111.7 miles 108°2017-08-23 17:01:05 IK2PYX-91.8 miles 116°2017-08-14 13:46:28
Stations which heard IW2GOB-9 directly on radio –
callsign pkts first heard - EDT last heard longest (tx => rx) longest at - EDT
IK2CHZ 20 2017-08-01 14:47:45 2017-08-01 15:19:10 JN44WX > JN45UI 28.5 miles 341° 2017-08-01 14:47:45
IR5X 48 2017-08-01 12:19:04 2017-08-01 13:17:47 JN44WD > JN53GS 41.9 miles 131° 2017-08-01 13:17:47
IR3BT 11 2017-08-01 14:26:09 2017-08-01 14:40:46 JN54CS > JN56MD 103.8 miles 24° 2017-08-01 14:26:09
IR2AO 9 2017-08-01 14:04:35 2017-08-01 15:18:59 JN44XL > JN45PM 77.2 miles 337° 2017-08-01 14:04:35
IR2UBX-11 3 2017-08-01 14:00:59 2017-08-01 15:12:36 JN44XK > JN45MQ 96.4 miles 334° 2017-08-01 14:00:59
IK2CHZ-11 3 2017-08-01 14:48:38 2017-08-01 15:02:15 JN44WX > JN45UI 28.5 miles 341° 2017-08-01 14:48:38
IS0AML 34 2017-08-01 00:54:03 2017-08-01 01:45:22 JM49JP > JM49NH 29.6 miles 144° 2017-08-01 01:45:22
IW9GTD-11 3 2017-08-01 03:25:49 2017-08-01 03:33:37 JN40UP > JM67GW 239.3 miles 141° 2017-08-01 03:33:37
IR1AX-11 5 2017-08-01 12:19:41 2017-08-01 12:28:27 JN53EO > JN44KL 97.0 miles 311° 2017-08-01 12:26:50
ED6YAB-3 7 2017-08-01 02:18:57 2017-08-01 12:26:27 JN53EO > JM19LM 475.0 miles 236° 2017-08-01 12:26:27
IR2BZ 15 2017-08-01 14:44:13 2017-08-01 15:19:09 JN44XW > JN45XO 44.8 miles 360° 2017-08-01 14:44:13
IR0DA 5 2017-08-01 00:53:53 2017-08-01 01:23:29 JM49LH > JM49OF 18.2 miles 107° 2017-08-01 01:01:55
IW2HUZ-11 13 2017-08-01 14:29:39 2017-08-01 15:14:01 JN54CT > JN45MU 91.0 miles 323° 2017-08-01 14:29:39
IW2GOB-2 8 2017-08-01 14:04:25 2017-08-01 15:19:22 JN44XL > JN45SH 59.2 miles 339° 2017-08-01 14:04:25
IW2GOB-11 173 2017-08-11 03:16:20 2017-08-18 13:54:46 JN45RH > JN45SH 2.0 miles 134° 2017-08-14 14:30:18
IR0AAI-12 57 2017-08-01 01:58:47 2017-08-01 02:56:34 JN40PH > JN40HD 36.1 miles 252° 2017-08-01 02:56:34
IR0UDY-12 16 2017-08-01 03:35:51 2017-08-01 04:05:01 JN40UQ > JN40OU 30.5 miles 292° 2017-08-01 03:35:51
IR2DF 4 2017-08-01 14:40:13 2017-08-01 15:10:35 JN54AV > JN55AS 59.3 miles 359° 2017-08-01 14:40:13
IK2ILW 7 2017-08-01 14:27:09 2017-08-01 15:15:49 JN54CS > JN45VV 79.0 miles 346° 2017-08-01 14:27:09
IR1UGE 6 2017-08-01 12:24:24 2017-08-01 12:59:50 JN53EO > JN33WX 127.4 miles 283° 2017-08-01 12:25:02
IR0EM-11 2 2017-08-01 03:27:12 2017-08-01 03:46:38 JN40TS > JN61SE 208.6 miles 81° 2017-08-01 03:46:38
IW5CBL-15 22 2017-08-01 13:04:25 2017-08-01 13:55:30 JN44XB > JN54BH 18.3 miles 23° 2017-08-01 13:04:25
IR2UFW 1 2017-08-01 15:15:59 2017-08-01 15:15:59 JN45SG > JN45LI 25.2 miles 284° 2017-08-01 15:15:59
IR2BY 8 2017-08-01 14:58:43 2017-08-01 15:18:17 JN45UC > JN55BQ 44.9 miles 27° 2017-08-01 14:58:43
IR0AAD-10 1 2017-08-01 03:42:06 2017-08-01 03:42:06 JN40TR > JN62JU 218.7 miles 47° 2017-08-01 03:42:06
IZ0PMP-10 1 2017-08-01 03:47:22 2017-08-01 03:47:22 JN40TT > JN61JK 171.7 miles 74° 2017-08-01 03:47:22
IQ3VO 1 2017-08-01 14:56:14 2017-08-01 14:56:14 JN45UC > JN55MQ 77.5 miles 57° 2017-08-01 14:56:14
IU2GED 2 2017-08-01 14:54:43 2017-08-01 14:55:43 JN45UB > JN45XV 59.1 miles 9° 2017-08-01 14:54:43
IR1BP 1 2017-08-01 12:27:54 2017-08-01 12:27:54 JN53EO > JN44BJ 122.6 miles 297° 2017-08-01 12:27:54

Only position packets which were originated by the station are shown here. The range statistics show some extra long hops, because some digipeaters do not correctly add themselves to the digipeater path. Please check the raw packets.
About this site
This page shows real-time information collected from the Automatic Position Reporting System Internet network (APRS-IS). APRS is used by amateur (ham) radio operators to transmit real-time position information, weather data, telemetry and messages over the radio. A vehicle equipped with a GPS receiver, a VHF transmitter or HF transceiver and a small computer device called a tracker transmits it's location, speed and course in a small data packet, which is then received by a nearby iGate receiving site which forwards the packet on the Internet. Systems connected to the Internet can send information on the APRS-IS without a radio transmitter, or collect and display information transmitted anywhere in the world.
FAQ · Blog · Discussion group · Linking to aprs.fi · AIS sites · Service status · Database statistics · Advertising on aprs.fi · Technical details · API · Change log · Planned changes · Credits and thanks · Terms Of Service · iPhone/iPad APRS